« Back
NWS Peachtree City, Ga » Text Product » AHN Terminal Aerodrome Forecast


Printer-friendly Version
Current Version              Previous Versions:   1  2  3  4  5  6  7  8  9  

Terminal Aerodrome Forecast

617
FTUS42 KFFC 301739
TAFAHN
TAF
KAHN 301739Z 3018/3118 07010KT P6SM -SHRA FEW010 BKN070
      TEMPO 3020/3023 4SM TSRA BKN025CB
     FM310100 09008KT P6SM SCT030 BKN100
     FM310600 09007KT P6SM BKN005 OVC030
     FM311400 09007KT 5SM BR BKN010
     FM311700 05006KT P6SM OVC025=

USA.gov is the U.S. government's official web portal to all federal, state and local government web resources and services.